sensor_id;sensor_type;location;lat;lon;timestamp;P1;durP1;ratioP1;P2;durP2;ratioP2
75096;SDS011;63684;47.964;11.186;2022-10-16T00:01:24;4.20;;;2.73;;
75096;SDS011;63684;47.964;11.186;2022-10-16T00:03:51;6.00;;;3.23;;
75096;SDS011;63684;47.964;11.186;2022-10-16T00:06:18;5.33;;;2.60;;
75096;SDS011;63684;47.964;11.186;2022-10-16T00:08:47;3.37;;;2.50;;
75096;SDS011;63684;47.964;11.186;2022-10-16T00:11:15;3.57;;;1.83;;
75096;SDS011;63684;47.964;11.186;2022-10-16T00:13:42;2.33;;;1.80;;
75096;SDS011;63684;47.964;11.186;2022-10-16T00:16:12;3.43;;;1.33;;
75096;SDS011;63684;47.964;11.186;2022-10-16T00:18:38;1.23;;;1.13;;
75096;SDS011;63684;47.964;11.186;2022-10-16T00:21:10;1.50;;;1.23;;
75096;SDS011;63684;47.964;11.186;2022-10-16T00:23:41;1.30;;;1.07;;
75096;SDS011;63684;47.964;11.186;2022-10-16T00:26:11;3.00;;;1.80;;
75096;SDS011;63684;47.964;11.186;2022-10-16T00:28:39;1.70;;;1.60;;
75096;SDS011;63684;47.964;11.186;2022-10-16T00:31:06;11.40;;;8.47;;
75096;SDS011;63684;47.964;11.186;2022-10-16T00:33:36;2.47;;;1.30;;
75096;SDS011;63684;47.964;11.186;2022-10-16T00:36:04;2.40;;;1.50;;
75096;SDS011;63684;47.964;11.186;2022-10-16T00:38:39;2.27;;;1.20;;
75096;SDS011;63684;47.964;11.186;2022-10-16T00:41:05;2.40;;;1.70;;
75096;SDS011;63684;47.964;11.186;2022-10-16T00:43:42;1.60;;;1.20;;
75096;SDS011;63684;47.964;11.186;2022-10-16T00:51:45;1.30;;;1.20;;
75096;SDS011;63684;47.964;11.186;2022-10-16T00:54:21;1.97;;;1.47;;
75096;SDS011;63684;47.964;11.186;2022-10-16T00:56:48;1.43;;;1.10;;
75096;SDS011;63684;47.964;11.186;2022-10-16T00:59:20;1.23;;;1.13;;
75096;SDS011;63684;47.964;11.186;2022-10-16T01:01:49;3.03;;;1.37;;
75096;SDS011;63684;47.964;11.186;2022-10-16T01:04:17;4.30;;;1.33;;
75096;SDS011;63684;47.964;11.186;2022-10-16T01:10:00;3.73;;;1.30;;
75096;SDS011;63684;47.964;11.186;2022-10-16T01:17:53;2.47;;;1.63;;
75096;SDS011;63684;47.964;11.186;2022-10-16T01:20:26;3.70;;;1.30;;
75096;SDS011;63684;47.964;11.186;2022-10-16T01:28:15;1.53;;;1.43;;
75096;SDS011;63684;47.964;11.186;2022-10-16T01:30:45;2.33;;;1.60;;
75096;SDS011;63684;47.964;11.186;2022-10-16T01:33:19;1.43;;;1.33;;
75096;SDS011;63684;47.964;11.186;2022-10-16T01:35:47;1.63;;;1.53;;
75096;SDS011;63684;47.964;11.186;2022-10-16T01:38:19;2.87;;;1.60;;
75096;SDS011;63684;47.964;11.186;2022-10-16T01:40:51;3.00;;;1.87;;
75096;SDS011;63684;47.964;11.186;2022-10-16T01:43:26;2.03;;;1.57;;
75096;SDS011;63684;47.964;11.186;2022-10-16T01:45:55;3.00;;;1.80;;
75096;SDS011;63684;47.964;11.186;2022-10-16T01:48:29;1.80;;;1.70;;
75096;SDS011;63684;47.964;11.186;2022-10-16T01:51:00;2.43;;;1.77;;
75096;SDS011;63684;47.964;11.186;2022-10-16T01:53:30;1.83;;;1.30;;
75096;SDS011;63684;47.964;11.186;2022-10-16T01:55:59;3.37;;;1.57;;
75096;SDS011;63684;47.964;11.186;2022-10-16T01:58:25;1.80;;;1.70;;
75096;SDS011;63684;47.964;11.186;2022-10-16T02:00:51;5.50;;;1.97;;
75096;SDS011;63684;47.964;11.186;2022-10-16T02:03:23;4.50;;;2.00;;
75096;SDS011;63684;47.964;11.186;2022-10-16T02:05:56;2.30;;;2.03;;
75096;SDS011;63684;47.964;11.186;2022-10-16T02:08:25;2.57;;;1.70;;
75096;SDS011;63684;47.964;11.186;2022-10-16T02:10:59;1.93;;;1.77;;
75096;SDS011;63684;47.964;11.186;2022-10-16T02:13:37;4.07;;;1.90;;
75096;SDS011;63684;47.964;11.186;2022-10-16T02:16:17;3.33;;;1.80;;
75096;SDS011;63684;47.964;11.186;2022-10-16T02:18:45;3.90;;;1.93;;
75096;SDS011;63684;47.964;11.186;2022-10-16T02:29:09;2.60;;;1.43;;
75096;SDS011;63684;47.964;11.186;2022-10-16T02:31:38;2.47;;;1.87;;
75096;SDS011;63684;47.964;11.186;2022-10-16T02:34:11;2.70;;;1.90;;
75096;SDS011;63684;47.964;11.186;2022-10-16T02:36:40;4.23;;;1.83;;
75096;SDS011;63684;47.964;11.186;2022-10-16T02:39:07;1.80;;;1.70;;
75096;SDS011;63684;47.964;11.186;2022-10-16T02:41:36;5.07;;;1.67;;
75096;SDS011;63684;47.964;11.186;2022-10-16T02:44:03;2.17;;;1.97;;
75096;SDS011;63684;47.964;11.186;2022-10-16T02:46:29;1.80;;;1.70;;
75096;SDS011;63684;47.964;11.186;2022-10-16T02:48:57;2.20;;;2.00;;
75096;SDS011;63684;47.964;11.186;2022-10-16T02:51:24;7.20;;;2.00;;
75096;SDS011;63684;47.964;11.186;2022-10-16T02:53:57;3.60;;;2.10;;
75096;SDS011;63684;47.964;11.186;2022-10-16T02:56:31;4.37;;;2.13;;
75096;SDS011;63684;47.964;11.186;2022-10-16T02:58:56;2.37;;;1.97;;
75096;SDS011;63684;47.964;11.186;2022-10-16T03:01:24;4.40;;;1.70;;
75096;SDS011;63684;47.964;11.186;2022-10-16T03:03:49;2.67;;;1.90;;
75096;SDS011;63684;47.964;11.186;2022-10-16T03:06:17;2.37;;;1.83;;
75096;SDS011;63684;47.964;11.186;2022-10-16T03:08:43;3.80;;;2.20;;
75096;SDS011;63684;47.964;11.186;2022-10-16T03:11:08;5.10;;;1.90;;
75096;SDS011;63684;47.964;11.186;2022-10-16T03:13:34;2.20;;;1.70;;
75096;SDS011;63684;47.964;11.186;2022-10-16T03:15:59;5.43;;;2.10;;
75096;SDS011;63684;47.964;11.186;2022-10-16T03:18:24;3.13;;;1.67;;
75096;SDS011;63684;47.964;11.186;2022-10-16T03:20:50;2.30;;;1.60;;
75096;SDS011;63684;47.964;11.186;2022-10-16T03:23:15;2.23;;;2.03;;
75096;SDS011;63684;47.964;11.186;2022-10-16T03:25:43;5.70;;;2.20;;
75096;SDS011;63684;47.964;11.186;2022-10-16T03:28:11;1.90;;;1.80;;
75096;SDS011;63684;47.964;11.186;2022-10-16T03:30:37;3.17;;;2.30;;
75096;SDS011;63684;47.964;11.186;2022-10-16T03:33:10;3.80;;;1.93;;
75096;SDS011;63684;47.964;11.186;2022-10-16T03:35:35;3.27;;;2.70;;
75096;SDS011;63684;47.964;11.186;2022-10-16T03:38:01;2.83;;;2.10;;
75096;SDS011;63684;47.964;11.186;2022-10-16T03:40:29;2.90;;;2.10;;
75096;SDS011;63684;47.964;11.186;2022-10-16T03:42:59;3.00;;;1.73;;
75096;SDS011;63684;47.964;11.186;2022-10-16T03:45:25;5.73;;;1.93;;
75096;SDS011;63684;47.964;11.186;2022-10-16T03:47:52;4.47;;;2.10;;
75096;SDS011;63684;47.964;11.186;2022-10-16T03:50:18;3.53;;;1.90;;
75096;SDS011;63684;47.964;11.186;2022-10-16T03:52:43;4.90;;;1.87;;
75096;SDS011;63684;47.964;11.186;2022-10-16T03:55:08;3.90;;;1.90;;
75096;SDS011;63684;47.964;11.186;2022-10-16T03:57:37;1.87;;;1.63;;
75096;SDS011;63684;47.964;11.186;2022-10-16T04:00:03;3.57;;;1.70;;
75096;SDS011;63684;47.964;11.186;2022-10-16T04:02:37;1.83;;;1.73;;
75096;SDS011;63684;47.964;11.186;2022-10-16T04:05:02;1.87;;;1.60;;
75096;SDS011;63684;47.964;11.186;2022-10-16T04:07:30;2.03;;;1.63;;
75096;SDS011;63684;47.964;11.186;2022-10-16T04:09:56;3.87;;;2.13;;
75096;SDS011;63684;47.964;11.186;2022-10-16T04:12:23;3.60;;;2.00;;
75096;SDS011;63684;47.964;11.186;2022-10-16T04:14:49;2.93;;;2.20;;
75096;SDS011;63684;47.964;11.186;2022-10-16T04:17:17;1.87;;;1.77;;
75096;SDS011;63684;47.964;11.186;2022-10-16T04:19:42;6.57;;;4.33;;
75096;SDS011;63684;47.964;11.186;2022-10-16T04:22:08;3.50;;;2.63;;
75096;SDS011;63684;47.964;11.186;2022-10-16T04:24:33;3.53;;;2.57;;
75096;SDS011;63684;47.964;11.186;2022-10-16T04:27:01;2.87;;;2.30;;
75096;SDS011;63684;47.964;11.186;2022-10-16T04:29:26;4.10;;;2.27;;
75096;SDS011;63684;47.964;11.186;2022-10-16T04:31:52;6.77;;;3.50;;
75096;SDS011;63684;47.964;11.186;2022-10-16T04:34:17;2.20;;;2.00;;
75096;SDS011;63684;47.964;11.186;2022-10-16T04:36:46;4.07;;;2.43;;
75096;SDS011;63684;47.964;11.186;2022-10-16T04:39:15;4.27;;;2.47;;
75096;SDS011;63684;47.964;11.186;2022-10-16T04:41:43;4.33;;;2.73;;
75096;SDS011;63684;47.964;11.186;2022-10-16T04:44:09;2.57;;;2.37;;
75096;SDS011;63684;47.964;11.186;2022-10-16T04:46:34;3.43;;;2.30;;
75096;SDS011;63684;47.964;11.186;2022-10-16T04:49:02;2.67;;;2.47;;
75096;SDS011;63684;47.964;11.186;2022-10-16T04:51:28;7.00;;;2.60;;
75096;SDS011;63684;47.964;11.186;2022-10-16T04:53:53;2.33;;;2.07;;
75096;SDS011;63684;47.964;11.186;2022-10-16T04:56:26;3.87;;;2.00;;
75096;SDS011;63684;47.964;11.186;2022-10-16T04:58:52;2.00;;;1.90;;
75096;SDS011;63684;47.964;11.186;2022-10-16T05:01:17;2.60;;;1.83;;
75096;SDS011;63684;47.964;11.186;2022-10-16T05:03:43;2.50;;;1.80;;
75096;SDS011;63684;47.964;11.186;2022-10-16T05:06:08;2.00;;;1.90;;
75096;SDS011;63684;47.964;11.186;2022-10-16T05:08:34;2.27;;;2.07;;
75096;SDS011;63684;47.964;11.186;2022-10-16T05:11:02;3.43;;;1.70;;
75096;SDS011;63684;47.964;11.186;2022-10-16T05:13:28;1.83;;;1.73;;
75096;SDS011;63684;47.964;11.186;2022-10-16T05:15:56;2.30;;;2.10;;
75096;SDS011;63684;47.964;11.186;2022-10-16T05:18:22;3.53;;;1.83;;
75096;SDS011;63684;47.964;11.186;2022-10-16T05:20:49;4.17;;;2.03;;
75096;SDS011;63684;47.964;11.186;2022-10-16T05:23:23;3.73;;;2.43;;
75096;SDS011;63684;47.964;11.186;2022-10-16T05:25:54;5.57;;;2.00;;
75096;SDS011;63684;47.964;11.186;2022-10-16T05:28:20;3.50;;;2.33;;
75096;SDS011;63684;47.964;11.186;2022-10-16T05:30:46;2.07;;;1.90;;
75096;SDS011;63684;47.964;11.186;2022-10-16T05:33:11;3.53;;;2.60;;
75096;SDS011;63684;47.964;11.186;2022-10-16T05:35:38;2.40;;;2.20;;
75096;SDS011;63684;47.964;11.186;2022-10-16T05:38:09;4.87;;;2.20;;
75096;SDS011;63684;47.964;11.186;2022-10-16T05:40:36;3.00;;;2.37;;
75096;SDS011;63684;47.964;11.186;2022-10-16T05:43:04;2.17;;;1.97;;
75096;SDS011;63684;47.964;11.186;2022-10-16T05:45:29;7.00;;;3.40;;
75096;SDS011;63684;47.964;11.186;2022-10-16T05:47:55;3.73;;;2.50;;
75096;SDS011;63684;47.964;11.186;2022-10-16T05:50:23;4.00;;;2.77;;
75096;SDS011;63684;47.964;11.186;2022-10-16T05:53:06;2.27;;;1.90;;
75096;SDS011;63684;47.964;11.186;2022-10-16T05:55:31;3.77;;;2.67;;
75096;SDS011;63684;47.964;11.186;2022-10-16T05:57:59;3.40;;;2.10;;
75096;SDS011;63684;47.964;11.186;2022-10-16T06:00:25;2.53;;;2.17;;
75096;SDS011;63684;47.964;11.186;2022-10-16T06:02:53;2.37;;;2.17;;
75096;SDS011;63684;47.964;11.186;2022-10-16T06:05:21;5.37;;;2.40;;
75096;SDS011;63684;47.964;11.186;2022-10-16T06:07:46;3.60;;;2.23;;
75096;SDS011;63684;47.964;11.186;2022-10-16T06:10:12;2.47;;;1.90;;
75096;SDS011;63684;47.964;11.186;2022-10-16T06:12:37;4.90;;;3.90;;
75096;SDS011;63684;47.964;11.186;2022-10-16T06:15:03;3.60;;;2.80;;
75096;SDS011;63684;47.964;11.186;2022-10-16T06:17:31;5.53;;;2.40;;
75096;SDS011;63684;47.964;11.186;2022-10-16T06:19:56;2.47;;;2.10;;
75096;SDS011;63684;47.964;11.186;2022-10-16T06:22:22;2.50;;;2.30;;
75096;SDS011;63684;47.964;11.186;2022-10-16T06:24:47;9.33;;;4.03;;
75096;SDS011;63684;47.964;11.186;2022-10-16T06:27:14;7.07;;;4.37;;
75096;SDS011;63684;47.964;11.186;2022-10-16T06:29:40;5.03;;;3.07;;
75096;SDS011;63684;47.964;11.186;2022-10-16T06:32:05;5.87;;;3.17;;
75096;SDS011;63684;47.964;11.186;2022-10-16T06:34:31;5.97;;;4.83;;
75096;SDS011;63684;47.964;11.186;2022-10-16T06:36:56;17.67;;;13.73;;
75096;SDS011;63684;47.964;11.186;2022-10-16T06:39:21;6.60;;;4.47;;
75096;SDS011;63684;47.964;11.186;2022-10-16T06:41:47;5.40;;;3.80;;
75096;SDS011;63684;47.964;11.186;2022-10-16T06:44:14;3.87;;;3.43;;
75096;SDS011;63684;47.964;11.186;2022-10-16T06:46:39;7.93;;;2.80;;
75096;SDS011;63684;47.964;11.186;2022-10-16T06:49:05;3.70;;;2.80;;
75096;SDS011;63684;47.964;11.186;2022-10-16T06:51:36;3.03;;;2.73;;
75096;SDS011;63684;47.964;11.186;2022-10-16T06:54:05;3.80;;;2.80;;
75096;SDS011;63684;47.964;11.186;2022-10-16T06:56:41;3.00;;;2.50;;
75096;SDS011;63684;47.964;11.186;2022-10-16T06:59:09;3.80;;;2.27;;
75096;SDS011;63684;47.964;11.186;2022-10-16T07:01:36;4.30;;;2.43;;
75096;SDS011;63684;47.964;11.186;2022-10-16T07:04:02;3.03;;;2.70;;
75096;SDS011;63684;47.964;11.186;2022-10-16T07:06:30;2.30;;;2.10;;
75096;SDS011;63684;47.964;11.186;2022-10-16T07:09:01;5.57;;;2.47;;
75096;SDS011;63684;47.964;11.186;2022-10-16T07:11:27;2.50;;;2.30;;
75096;SDS011;63684;47.964;11.186;2022-10-16T07:13:55;2.50;;;2.10;;
75096;SDS011;63684;47.964;11.186;2022-10-16T07:16:24;1.73;;;1.63;;
75096;SDS011;63684;47.964;11.186;2022-10-16T07:18:58;5.10;;;2.40;;
75096;SDS011;63684;47.964;11.186;2022-10-16T07:21:31;2.37;;;2.17;;
75096;SDS011;63684;47.964;11.186;2022-10-16T07:24:02;5.10;;;2.30;;
75096;SDS011;63684;47.964;11.186;2022-10-16T07:26:34;2.33;;;2.00;;
75096;SDS011;63684;47.964;11.186;2022-10-16T07:29:01;2.33;;;2.00;;
75096;SDS011;63684;47.964;11.186;2022-10-16T07:31:34;2.27;;;2.07;;
75096;SDS011;63684;47.964;11.186;2022-10-16T07:34:00;3.77;;;2.27;;
75096;SDS011;63684;47.964;11.186;2022-10-16T07:36:25;2.63;;;1.73;;
75096;SDS011;63684;47.964;11.186;2022-10-16T07:38:51;1.90;;;1.80;;
75096;SDS011;63684;47.964;11.186;2022-10-16T07:41:17;2.67;;;1.73;;
75096;SDS011;63684;47.964;11.186;2022-10-16T07:43:50;2.03;;;1.83;;
75096;SDS011;63684;47.964;11.186;2022-10-16T07:46:17;2.83;;;1.52;;
75096;SDS011;63684;47.964;11.186;2022-10-16T07:48:44;1.50;;;1.40;;
75096;SDS011;63684;47.964;11.186;2022-10-16T07:51:13;1.73;;;1.30;;
75096;SDS011;63684;47.964;11.186;2022-10-16T07:53:40;2.80;;;1.77;;
75096;SDS011;63684;47.964;11.186;2022-10-16T07:56:06;2.15;;;1.60;;
75096;SDS011;63684;47.964;11.186;2022-10-16T07:58:32;7.97;;;1.20;;
75096;SDS011;63684;47.964;11.186;2022-10-16T08:01:07;1.45;;;1.35;;
75096;SDS011;63684;47.964;11.186;2022-10-16T08:03:36;1.13;;;1.02;;
75096;SDS011;63684;47.964;11.186;2022-10-16T08:06:04;2.33;;;1.42;;
75096;SDS011;63684;47.964;11.186;2022-10-16T08:08:30;1.50;;;1.40;;
75096;SDS011;63684;47.964;11.186;2022-10-16T08:10:55;1.58;;;1.40;;
75096;SDS011;63684;47.964;11.186;2022-10-16T08:13:23;2.95;;;1.60;;
75096;SDS011;63684;47.964;11.186;2022-10-16T08:15:49;2.25;;;1.40;;
75096;SDS011;63684;47.964;11.186;2022-10-16T08:18:14;1.73;;;1.40;;
75096;SDS011;63684;47.964;11.186;2022-10-16T08:20:41;2.67;;;1.30;;
75096;SDS011;63684;47.964;11.186;2022-10-16T08:23:08;4.30;;;1.65;;
75096;SDS011;63684;47.964;11.186;2022-10-16T08:25:35;1.92;;;1.73;;
75096;SDS011;63684;47.964;11.186;2022-10-16T08:28:03;2.83;;;1.33;;
75096;SDS011;63684;47.964;11.186;2022-10-16T08:30:29;1.75;;;1.58;;
75096;SDS011;63684;47.964;11.186;2022-10-16T08:32:55;1.58;;;1.48;;
75096;SDS011;63684;47.964;11.186;2022-10-16T08:35:20;2.95;;;1.33;;
75096;SDS011;63684;47.964;11.186;2022-10-16T08:37:46;5.00;;;1.38;;
75096;SDS011;63684;47.964;11.186;2022-10-16T08:40:20;4.60;;;1.50;;
75096;SDS011;63684;47.964;11.186;2022-10-16T08:48:20;3.38;;;1.48;;
75096;SDS011;63684;47.964;11.186;2022-10-16T08:50:56;1.63;;;1.40;;
75096;SDS011;63684;47.964;11.186;2022-10-16T08:53:27;1.77;;;1.08;;
75096;SDS011;63684;47.964;11.186;2022-10-16T08:56:03;1.15;;;0.90;;
75096;SDS011;63684;47.964;11.186;2022-10-16T08:58:31;1.88;;;1.25;;
75096;SDS011;63684;47.964;11.186;2022-10-16T09:01:21;1.45;;;0.90;;
75096;SDS011;63684;47.964;11.186;2022-10-16T09:11:49;1.25;;;1.15;;
75096;SDS011;63684;47.964;11.186;2022-10-16T09:19:45;0.98;;;0.80;;
75096;SDS011;63684;47.964;11.186;2022-10-16T09:22:16;1.63;;;0.85;;
75096;SDS011;63684;47.964;11.186;2022-10-16T09:24:43;0.70;;;0.70;;
75096;SDS011;63684;47.964;11.186;2022-10-16T09:27:12;0.90;;;0.90;;
75096;SDS011;63684;47.964;11.186;2022-10-16T09:29:38;1.02;;;0.70;;
75096;SDS011;63684;47.964;11.186;2022-10-16T09:32:15;2.50;;;1.80;;
75096;SDS011;63684;47.964;11.186;2022-10-16T09:34:43;1.58;;;1.00;;
75096;SDS011;63684;47.964;11.186;2022-10-16T09:37:13;3.33;;;1.45;;
75096;SDS011;63684;47.964;11.186;2022-10-16T09:39:49;1.27;;;1.17;;
75096;SDS011;63684;47.964;11.186;2022-10-16T09:42:26;0.88;;;0.75;;
75096;SDS011;63684;47.964;11.186;2022-10-16T09:45:00;0.80;;;0.70;;
75096;SDS011;63684;47.964;11.186;2022-10-16T09:47:26;1.95;;;0.63;;
75096;SDS011;63684;47.964;11.186;2022-10-16T09:49:54;2.33;;;0.80;;
75096;SDS011;63684;47.964;11.186;2022-10-16T09:52:27;1.05;;;0.55;;
75096;SDS011;63684;47.964;11.186;2022-10-16T09:55:14;1.80;;;0.98;;
75096;SDS011;63684;47.964;11.186;2022-10-16T09:57:50;2.25;;;0.70;;
75096;SDS011;63684;47.964;11.186;2022-10-16T10:00:20;0.93;;;0.80;;
75096;SDS011;63684;47.964;11.186;2022-10-16T10:02:47;0.65;;;0.60;;
75096;SDS011;63684;47.964;11.186;2022-10-16T10:05:18;0.80;;;0.68;;
75096;SDS011;63684;47.964;11.186;2022-10-16T10:07:58;1.35;;;0.95;;
75096;SDS011;63684;47.964;11.186;2022-10-16T10:10:34;1.23;;;0.68;;
75096;SDS011;63684;47.964;11.186;2022-10-16T10:13:14;2.88;;;0.77;;
75096;SDS011;63684;47.964;11.186;2022-10-16T10:15:43;0.70;;;0.70;;
75096;SDS011;63684;47.964;11.186;2022-10-16T10:18:19;3.78;;;0.90;;
75096;SDS011;63684;47.964;11.186;2022-10-16T10:20:46;3.63;;;0.82;;
75096;SDS011;63684;47.964;11.186;2022-10-16T10:23:25;1.30;;;0.88;;
75096;SDS011;63684;47.964;11.186;2022-10-16T10:31:11;1.15;;;0.88;;
75096;SDS011;63684;47.964;11.186;2022-10-16T10:36:36;1.30;;;1.00;;
75096;SDS011;63684;47.964;11.186;2022-10-16T10:39:08;2.25;;;1.08;;
75096;SDS011;63684;47.964;11.186;2022-10-16T10:44:55;1.17;;;0.80;;
75096;SDS011;63684;47.964;11.186;2022-10-16T10:53:22;1.17;;;0.93;;
75096;SDS011;63684;47.964;11.186;2022-10-16T10:56:08;1.08;;;1.08;;
75096;SDS011;63684;47.964;11.186;2022-10-16T11:01:35;1.27;;;0.70;;
75096;SDS011;63684;47.964;11.186;2022-10-16T11:06:48;1.25;;;0.73;;
75096;SDS011;63684;47.964;11.186;2022-10-16T11:09:27;0.73;;;0.73;;
75096;SDS011;63684;47.964;11.186;2022-10-16T11:14:34;10.32;;;1.10;;
75096;SDS011;63684;47.964;11.186;2022-10-16T11:20:00;1.60;;;0.90;;
75096;SDS011;63684;47.964;11.186;2022-10-16T11:22:32;6.13;;;0.73;;
75096;SDS011;63684;47.964;11.186;2022-10-16T11:27:40;6.80;;;0.60;;
75096;SDS011;63684;47.964;11.186;2022-10-16T11:30:16;4.60;;;0.60;;
75096;SDS011;63684;47.964;11.186;2022-10-16T11:32:59;2.83;;;0.90;;
75096;SDS011;63684;47.964;11.186;2022-10-16T11:40:45;0.70;;;0.70;;
75096;SDS011;63684;47.964;11.186;2022-10-16T11:45:44;0.85;;;0.70;;
75096;SDS011;63684;47.964;11.186;2022-10-16T11:48:31;3.63;;;0.80;;
75096;SDS011;63684;47.964;11.186;2022-10-16T11:51:19;0.50;;;0.50;;
75096;SDS011;63684;47.964;11.186;2022-10-16T11:54:02;3.90;;;0.70;;
75096;SDS011;63684;47.964;11.186;2022-10-16T11:56:46;1.95;;;0.55;;
75096;SDS011;63684;47.964;11.186;2022-10-16T11:59:51;2.25;;;1.05;;
75096;SDS011;63684;47.964;11.186;2022-10-16T12:02:23;0.60;;;0.60;;
75096;SDS011;63684;47.964;11.186;2022-10-16T12:05:03;0.65;;;0.65;;
75096;SDS011;63684;47.964;11.186;2022-10-16T12:08:11;1.13;;;0.63;;
75096;SDS011;63684;47.964;11.186;2022-10-16T12:10:38;6.57;;;0.60;;
75096;SDS011;63684;47.964;11.186;2022-10-16T12:13:25;1.80;;;0.70;;
75096;SDS011;63684;47.964;11.186;2022-10-16T12:18:36;0.70;;;0.60;;
75096;SDS011;63684;47.964;11.186;2022-10-16T12:21:04;0.73;;;0.63;;
75096;SDS011;63684;47.964;11.186;2022-10-16T12:23:33;0.75;;;0.60;;
75096;SDS011;63684;47.964;11.186;2022-10-16T12:26:02;4.72;;;0.60;;
75096;SDS011;63684;47.964;11.186;2022-10-16T12:28:36;2.63;;;0.57;;
75096;SDS011;63684;47.964;11.186;2022-10-16T12:31:07;1.25;;;0.65;;
75096;SDS011;63684;47.964;11.186;2022-10-16T12:33:37;0.40;;;0.40;;
75096;SDS011;63684;47.964;11.186;2022-10-16T12:36:16;0.52;;;0.40;;
75096;SDS011;63684;47.964;11.186;2022-10-16T12:38:52;1.75;;;0.80;;
75096;SDS011;63684;47.964;11.186;2022-10-16T12:41:31;0.50;;;0.50;;
75096;SDS011;63684;47.964;11.186;2022-10-16T12:44:02;0.45;;;0.45;;
75096;SDS011;63684;47.964;11.186;2022-10-16T12:49:04;0.95;;;0.63;;
75096;SDS011;63684;47.964;11.186;2022-10-16T12:51:42;3.03;;;0.60;;
75096;SDS011;63684;47.964;11.186;2022-10-16T12:59:33;0.95;;;0.50;;
75096;SDS011;63684;47.964;11.186;2022-10-16T13:05:19;0.38;;;0.38;;
75096;SDS011;63684;47.964;11.186;2022-10-16T13:10:41;2.45;;;0.40;;
75096;SDS011;63684;47.964;11.186;2022-10-16T13:13:56;1.35;;;0.60;;
75096;SDS011;63684;47.964;11.186;2022-10-16T13:16:37;0.40;;;0.40;;
75096;SDS011;63684;47.964;11.186;2022-10-16T13:22:11;0.55;;;0.47;;
75096;SDS011;63684;47.964;11.186;2022-10-16T13:25:13;0.68;;;0.50;;
75096;SDS011;63684;47.964;11.186;2022-10-16T13:27:59;1.65;;;0.50;;
75096;SDS011;63684;47.964;11.186;2022-10-16T13:30:30;0.60;;;0.50;;
75096;SDS011;63684;47.964;11.186;2022-10-16T13:36:05;1.20;;;0.50;;
75096;SDS011;63684;47.964;11.186;2022-10-16T13:38:44;4.97;;;0.70;;
75096;SDS011;63684;47.964;11.186;2022-10-16T13:41:16;0.73;;;0.50;;
75096;SDS011;63684;47.964;11.186;2022-10-16T13:43:51;0.63;;;0.50;;
75096;SDS011;63684;47.964;11.186;2022-10-16T13:46:19;0.40;;;0.40;;
75096;SDS011;63684;47.964;11.186;2022-10-16T13:49:00;1.42;;;0.60;;
75096;SDS011;63684;47.964;11.186;2022-10-16T13:51:26;0.55;;;0.47;;
75096;SDS011;63684;47.964;11.186;2022-10-16T13:53:53;0.50;;;0.50;;
75096;SDS011;63684;47.964;11.186;2022-10-16T13:56:25;2.85;;;0.50;;
75096;SDS011;63684;47.964;11.186;2022-10-16T13:59:02;0.52;;;0.47;;
75096;SDS011;63684;47.964;11.186;2022-10-16T14:01:31;0.40;;;0.40;;
75096;SDS011;63684;47.964;11.186;2022-10-16T14:04:09;1.75;;;0.50;;
75096;SDS011;63684;47.964;11.186;2022-10-16T14:06:42;0.75;;;0.50;;
75096;SDS011;63684;47.964;11.186;2022-10-16T14:12:11;1.95;;;0.40;;
75096;SDS011;63684;47.964;11.186;2022-10-16T14:14:41;2.05;;;0.43;;
75096;SDS011;63684;47.964;11.186;2022-10-16T14:17:14;0.57;;;0.38;;
75096;SDS011;63684;47.964;11.186;2022-10-16T14:20:03;2.63;;;0.90;;
75096;SDS011;63684;47.964;11.186;2022-10-16T14:22:33;0.55;;;0.50;;
75096;SDS011;63684;47.964;11.186;2022-10-16T14:27:56;0.50;;;0.50;;
75096;SDS011;63684;47.964;11.186;2022-10-16T14:30:33;0.40;;;0.40;;
75096;SDS011;63684;47.964;11.186;2022-10-16T14:33:03;3.60;;;0.60;;
75096;SDS011;63684;47.964;11.186;2022-10-16T14:35:33;0.60;;;0.60;;
75096;SDS011;63684;47.964;11.186;2022-10-16T14:38:03;0.95;;;0.50;;
75096;SDS011;63684;47.964;11.186;2022-10-16T14:40:33;0.43;;;0.43;;
75096;SDS011;63684;47.964;11.186;2022-10-16T14:43:03;1.05;;;0.47;;
75096;SDS011;63684;47.964;11.186;2022-10-16T14:45:30;0.65;;;0.45;;
75096;SDS011;63684;47.964;11.186;2022-10-16T14:47:59;1.48;;;0.40;;
75096;SDS011;63684;47.964;11.186;2022-10-16T14:50:28;1.58;;;0.52;;
75096;SDS011;63684;47.964;11.186;2022-10-16T14:52:56;1.10;;;0.63;;
75096;SDS011;63684;47.964;11.186;2022-10-16T14:55:24;1.25;;;0.55;;
75096;SDS011;63684;47.964;11.186;2022-10-16T14:57:50;1.08;;;0.50;;
75096;SDS011;63684;47.964;11.186;2022-10-16T15:00:21;0.88;;;0.50;;
75096;SDS011;63684;47.964;11.186;2022-10-16T15:02:52;0.82;;;0.50;;
75096;SDS011;63684;47.964;11.186;2022-10-16T15:07:54;0.88;;;0.55;;
75096;SDS011;63684;47.964;11.186;2022-10-16T15:10:23;3.45;;;0.80;;
75096;SDS011;63684;47.964;11.186;2022-10-16T15:12:52;5.75;;;0.90;;
75096;SDS011;63684;47.964;11.186;2022-10-16T15:17:48;3.25;;;0.80;;
75096;SDS011;63684;47.964;11.186;2022-10-16T15:20:31;3.85;;;0.90;;
75096;SDS011;63684;47.964;11.186;2022-10-16T15:23:04;2.78;;;0.80;;
75096;SDS011;63684;47.964;11.186;2022-10-16T15:25:42;1.98;;;0.75;;
75096;SDS011;63684;47.964;11.186;2022-10-16T15:28:11;1.20;;;0.90;;
75096;SDS011;63684;47.964;11.186;2022-10-16T15:30:48;2.17;;;1.08;;
75096;SDS011;63684;47.964;11.186;2022-10-16T15:33:16;3.10;;;1.08;;
75096;SDS011;63684;47.964;11.186;2022-10-16T15:35:46;1.73;;;0.98;;
75096;SDS011;63684;47.964;11.186;2022-10-16T15:38:13;3.50;;;0.98;;
75096;SDS011;63684;47.964;11.186;2022-10-16T15:40:45;3.35;;;0.98;;
75096;SDS011;63684;47.964;11.186;2022-10-16T15:43:13;1.75;;;0.80;;
75096;SDS011;63684;47.964;11.186;2022-10-16T15:45:39;4.75;;;0.88;;
75096;SDS011;63684;47.964;11.186;2022-10-16T15:48:04;2.15;;;1.13;;
75096;SDS011;63684;47.964;11.186;2022-10-16T15:50:30;3.80;;;0.85;;
75096;SDS011;63684;47.964;11.186;2022-10-16T15:52:58;5.40;;;1.17;;
75096;SDS011;63684;47.964;11.186;2022-10-16T15:55:23;1.80;;;0.63;;
75096;SDS011;63684;47.964;11.186;2022-10-16T15:57:52;1.98;;;0.75;;
75096;SDS011;63684;47.964;11.186;2022-10-16T16:00:20;6.13;;;1.00;;
75096;SDS011;63684;47.964;11.186;2022-10-16T16:02:50;6.50;;;0.80;;
75096;SDS011;63684;47.964;11.186;2022-10-16T16:05:17;3.95;;;1.20;;
75096;SDS011;63684;47.964;11.186;2022-10-16T16:07:43;4.63;;;0.90;;
75096;SDS011;63684;47.964;11.186;2022-10-16T16:10:11;3.70;;;0.80;;
75096;SDS011;63684;47.964;11.186;2022-10-16T16:12:37;3.22;;;1.05;;
75096;SDS011;63684;47.964;11.186;2022-10-16T16:15:06;4.30;;;0.95;;
75096;SDS011;63684;47.964;11.186;2022-10-16T16:17:37;4.10;;;0.82;;
75096;SDS011;63684;47.964;11.186;2022-10-16T16:20:05;5.45;;;1.88;;
75096;SDS011;63684;47.964;11.186;2022-10-16T16:22:30;1.25;;;0.80;;
75096;SDS011;63684;47.964;11.186;2022-10-16T16:25:03;0.80;;;0.80;;
75096;SDS011;63684;47.964;11.186;2022-10-16T16:27:32;2.25;;;1.00;;
75096;SDS011;63684;47.964;11.186;2022-10-16T16:30:12;6.45;;;1.20;;
75096;SDS011;63684;47.964;11.186;2022-10-16T16:32:41;0.68;;;0.65;;
75096;SDS011;63684;47.964;11.186;2022-10-16T16:35:09;4.38;;;0.80;;
75096;SDS011;63684;47.964;11.186;2022-10-16T16:37:34;1.75;;;0.60;;
75096;SDS011;63684;47.964;11.186;2022-10-16T16:40:00;1.95;;;0.93;;
75096;SDS011;63684;47.964;11.186;2022-10-16T16:42:27;4.18;;;0.90;;
75096;SDS011;63684;47.964;11.186;2022-10-16T16:44:53;1.80;;;0.80;;
75096;SDS011;63684;47.964;11.186;2022-10-16T16:47:21;4.18;;;1.00;;
75096;SDS011;63684;47.964;11.186;2022-10-16T16:49:49;6.72;;;1.10;;